| time (UTC) | temp C | wind direction | speed KPH | gust KPH | rain 1hr cm | rain 24hr cm | rain mn cm | humidity % | barometer mb |
| 20260504081401 | 8 | 98 | 0.0 | 4.8 | 0.00 | 0.00 | 0.00 | 87 | 1005.8 |
| 20260504080856 | 8 | 122 | 3.2 | 3.2 | 0.00 | 0.00 | 0.00 | 87 | 1005.8 |
| 20260504080354 | 8 | 104 | 0.0 | 3.2 | 0.00 | 0.00 | 0.00 | 86 | 1005.7 |
| 20260504070315 | 11 | 100 | 0.0 | 4.8 | 0.00 | 0.00 | 0.00 | 75 | 1006.4 |
| 20260504060236 | 13 | 223 | 0.0 | 6.4 | 0.00 | 0.00 | 0.00 | 72 | 1007.2 |
| 20260504050703 | 14 | 258 | 6.4 | 9.7 | 0.00 | 0.00 | 0.00 | 68 | 1007.4 |
| 20260504050200 | 14 | 186 | 3.2 | 4.8 | 0.00 | 0.00 | 0.00 | 68 | 1007.2 |
| 20260504045657 | 15 | 166 | 0.0 | 11.3 | 0.00 | 0.18 | 0.18 | 67 | 1007.5 |
| 20260504045152 | 14 | 251 | 1.6 | 14.5 | 0.00 | 0.18 | 0.18 | 68 | 1007.4 |
| 20260504044650 | 14 | 193 | 0.0 | 8.0 | 0.00 | 0.18 | 0.18 | 69 | 1007.6 |
| 20260504044147 | 14 | 186 | 3.2 | 11.3 | 0.00 | 0.18 | 0.18 | 69 | 1007.5 |
| 20260504043644 | 14 | 113 | 3.2 | 9.7 | 0.00 | 0.18 | 0.18 | 70 | 1007.5 |
| 20260504043141 | 14 | 343 | 0.0 | 4.8 | 0.00 | 0.18 | 0.18 | 69 | 1007.4 |
| 20260504042639 | 14 | 150 | 4.8 | 9.7 | 0.00 | 0.18 | 0.18 | 68 | 1007.4 |
| 20260504042135 | 14 | 188 | 3.2 | 8.0 | 0.00 | 0.18 | 0.18 | 68 | 1007.2 |
| 20260504041631 | 14 | 131 | 1.6 | 4.8 | 0.00 | 0.18 | 0.18 | 69 | 1007.2 |
| 20260504041127 | 14 | 150 | 3.2 | 8.0 | 0.00 | 0.18 | 0.18 | 68 | 1007.3 |
| 20260504040624 | 15 | 239 | 0.0 | 8.0 | 0.00 | 0.18 | 0.18 | 68 | 1007.4 |
| 20260504040121 | 14 | 209 | 1.6 | 6.4 | 0.00 | 0.18 | 0.18 | 68 | 1007.3 |
| 20260504035618 | 15 | 146 | 1.6 | 11.3 | 0.00 | 0.18 | 0.18 | 67 | 1007.1 |
| 20260504035114 | 15 | 249 | 1.6 | 12.9 | 0.00 | 0.18 | 0.18 | 67 | 1007.4 |
| 20260504034612 | 15 | 269 | 0.0 | 6.4 | 0.00 | 0.18 | 0.18 | 66 | 1007.5 |
| 20260504034109 | 15 | 210 | 4.8 | 9.7 | 0.00 | 0.18 | 0.18 | 66 | 1007.4 |
| 20260504033607 | 15 | 209 | 3.2 | 8.0 | 0.00 | 0.18 | 0.18 | 66 | 1007.5 |
| 20260504033104 | 15 | 110 | 3.2 | 8.0 | 0.00 | 0.18 | 0.18 | 65 | 1007.6 |
| 20260504032601 | 15 | 342 | 3.2 | 9.7 | 0.00 | 0.18 | 0.18 | 65 | 1007.7 |
| 20260504032058 | 15 | 155 | 0.0 | 8.0 | 0.00 | 0.18 | 0.18 | 64 | 1007.7 |
| 20260504031555 | 15 | 191 | 4.8 | 8.0 | 0.00 | 0.18 | 0.18 | 64 | 1007.6 |
| 20260504031051 | 15 | 114 | 1.6 | 11.3 | 0.00 | 0.18 | 0.18 | 63 | 1007.8 |
| 20260504030548 | 15 | 139 | 3.2 | 8.0 | 0.00 | 0.18 | 0.18 | 63 | 1007.9 |
| 20260504030044 | 15 | 233 | 4.8 | 8.0 | 0.00 | 0.18 | 0.18 | 63 | 1007.9 |
| 20260504025542 | 15 | 29 | 0.0 | 8.0 | 0.00 | 0.18 | 0.18 | 63 | 1007.7 |
| 20260504025038 | 15 | 240 | 1.6 | 4.8 | 0.00 | 0.18 | 0.18 | 63 | 1007.8 |
| 20260504024535 | 15 | 189 | 3.2 | 8.0 | 0.00 | 0.18 | 0.18 | 63 | 1007.7 |
| 20260504024032 | 15 | 42 | 1.6 | 4.8 | 0.00 | 0.18 | 0.18 | 63 | 1007.8 |
| 20260504023529 | 15 | 297 | 0.0 | 8.0 | 0.00 | 0.18 | 0.18 | 62 | 1007.7 |
| 20260504023025 | 15 | 89 | 0.0 | 6.4 | 0.00 | 0.18 | 0.18 | 62 | 1007.8 |
| 20260504022520 | 15 | 129 | 0.0 | 4.8 | 0.00 | 0.18 | 0.18 | 61 | 1007.8 |
| 20260504022017 | 16 | 156 | 0.0 | 8.0 | 0.00 | 0.18 | 0.18 | 60 | 1007.5 |
| 20260504021515 | 16 | 159 | 3.2 | 8.0 | 0.00 | 0.18 | 0.18 | 60 | 1007.5 |
| 20260504021012 | 16 | 88 | 3.2 | 6.4 | 0.00 | 0.18 | 0.18 | 60 | 1007.7 |
| 20260504020508 | 16 | 201 | 0.0 | 6.4 | 0.00 | 0.18 | 0.18 | 60 | 1007.5 |
| 20260504020005 | 16 | 75 | 0.0 | 4.8 | 0.00 | 0.18 | 0.18 | 60 | 1007.5 |
| 20260504015501 | 16 | 243 | 1.6 | 6.4 | 0.00 | 0.18 | 0.18 | 59 | 1007.5 |
| 20260504014957 | 16 | 262 | 1.6 | 6.4 | 0.00 | 0.18 | 0.18 | 58 | 1007.4 |
| 20260504014453 | 16 | 121 | 3.2 | 4.8 | 0.00 | 0.18 | 0.18 | 58 | 1007.6 |
| 20260504013950 | 16 | 316 | 0.0 | 4.8 | 0.00 | 0.18 | 0.18 | 58 | 1007.4 |
| 20260504013449 | 16 | 135 | 3.2 | 6.4 | 0.00 | 0.18 | 0.18 | 58 | 1007.4 |
| 20260504012944 | 16 | 200 | 4.8 | 6.4 | 0.00 | 0.18 | 0.18 | 57 | 1007.1 |
| 20260504012443 | 16 | 236 | 1.6 | 8.0 | 0.00 | 0.18 | 0.18 | 57 | 1007.1 |
| 20260504011940 | 17 | 197 | 1.6 | 6.4 | 0.00 | 0.18 | 0.18 | 57 | 1007.2 |
| 20260504011436 | 17 | 345 | 0.0 | 8.0 | 0.00 | 0.18 | 0.18 | 56 | 1007.3 |
| 20260504010932 | 17 | 271 | 1.6 | 6.4 | 0.00 | 0.18 | 0.18 | 56 | 1007.2 |
| 20260504010429 | 17 | 279 | 3.2 | 9.7 | 0.00 | 0.18 | 0.18 | 55 | 1007.2 |
| 20260504005925 | 17 | 257 | 4.8 | 8.0 | 0.00 | 0.18 | 0.18 | 55 | 1007.3 |
| 20260504005422 | 17 | 259 | 4.8 | 11.3 | 0.00 | 0.18 | 0.18 | 54 | 1007.3 |
| 20260504004919 | 17 | 262 | 4.8 | 8.0 | 0.00 | 0.18 | 0.18 | 54 | 1007.3 |
| 20260504004417 | 18 | 151 | 6.4 | 11.3 | 0.00 | 0.18 | 0.18 | 53 | 1007.2 |
| 20260504003914 | 18 | 243 | 3.2 | 9.7 | 0.00 | 0.18 | 0.18 | 52 | 1007.1 |
| 20260504003410 | 18 | 246 | 1.6 | 12.9 | 0.00 | 0.18 | 0.18 | 52 | 1007.1 |
| 20260504002907 | 18 | 279 | 6.4 | 12.9 | 0.00 | 0.18 | 0.18 | 51 | 1007.1 |
| 20260504002404 | 18 | 172 | 3.2 | 8.0 | 0.00 | 0.18 | 0.18 | 51 | 1007.1 |
| 20260504001901 | 18 | 244 | 3.2 | 11.3 | 0.00 | 0.18 | 0.18 | 51 | 1007.1 |
| 20260504001359 | 18 | 161 | 11.3 | 25.7 | 0.00 | 0.18 | 0.18 | 50 | 1007.1 |
| 20260504000855 | 19 | 184 | 6.4 | 16.1 | 0.00 | 0.18 | 0.18 | 49 | 1007.3 |
| 20260504000354 | 19 | 244 | 4.8 | 11.3 | 0.00 | 0.18 | 0.18 | 49 | 1007.0 |
| 20260503235849 | 19 | 252 | 4.8 | 20.9 | 0.00 | 0.18 | 0.18 | 49 | 1007.1 |
| 20260503235347 | 19 | 234 | 1.6 | 9.7 | 0.00 | 0.18 | 0.18 | 49 | 1007.3 |
| 20260503234844 | 20 | 349 | 3.2 | 6.4 | 0.00 | 0.18 | 0.18 | 49 | 1007.1 |
| 20260503234342 | 20 | 296 | 6.4 | 12.9 | 0.00 | 0.18 | 0.18 | 47 | 1007.4 |
| 20260503233840 | 20 | 271 | 4.8 | 12.9 | 0.00 | 0.18 | 0.18 | 46 | 1007.3 |
| 20260503233336 | 20 | 311 | 4.8 | 11.3 | 0.00 | 0.18 | 0.18 | 45 | 1007.3 |
| 20260503232832 | 20 | 269 | 4.8 | 17.7 | 0.00 | 0.18 | 0.18 | 46 | 1007.3 |
| 20260503232330 | 21 | 278 | 8.0 | 14.5 | 0.00 | 0.18 | 0.18 | 45 | 1007.2 |
| 20260503231827 | 21 | 244 | 3.2 | 9.7 | 0.00 | 0.18 | 0.18 | 45 | 1007.1 |
| 20260503231324 | 21 | 305 | 6.4 | 12.9 | 0.00 | 0.18 | 0.18 | 44 | 1007.5 |
| 20260503230820 | 21 | 237 | 3.2 | 22.5 | 0.00 | 0.18 | 0.18 | 45 | 1007.4 |
| 20260503230317 | 21 | 291 | 17.7 | 17.7 | 0.00 | 0.18 | 0.18 | 45 | 1007.4 |
| 20260503225815 | 21 | 265 | 8.0 | 19.3 | 0.00 | 0.18 | 0.18 | 45 | 1007.3 |
| 20260503225310 | 21 | 274 | 9.7 | 35.4 | 0.00 | 0.18 | 0.18 | 44 | 1007.5 |
| 20260503224807 | 21 | 311 | 12.9 | 17.7 | 0.00 | 0.18 | 0.18 | 43 | 1007.4 |
| 20260503224305 | 20 | 313 | 4.8 | 29.0 | 0.00 | 0.18 | 0.18 | 44 | 1007.4 |
| 20260503223802 | 20 | 237 | 3.2 | 29.0 | 0.00 | 0.18 | 0.18 | 46 | 1007.6 |
| 20260503223300 | 20 | 243 | 6.4 | 14.5 | 0.00 | 0.18 | 0.18 | 47 | 1007.5 |
| 20260503222755 | 20 | 252 | 9.7 | 20.9 | 0.00 | 0.18 | 0.18 | 45 | 1007.7 |
| 20260503222254 | 20 | 267 | 8.0 | 20.9 | 0.00 | 0.18 | 0.18 | 44 | 1007.6 |
| 20260503221752 | 21 | 206 | 9.7 | 11.3 | 0.00 | 0.18 | 0.18 | 43 | 1007.7 |
| 20260503221249 | 21 | 206 | 3.2 | 20.9 | 0.00 | 0.18 | 0.18 | 43 | 1007.6 |
| 20260503220745 | 20 | 283 | 6.4 | 14.5 | 0.00 | 0.18 | 0.18 | 44 | 1007.6 |
| 20260503220243 | 20 | 237 | 6.4 | 24.1 | 0.00 | 0.18 | 0.18 | 43 | 1007.7 |
| 20260503215739 | 21 | 214 | 14.5 | 17.7 | 0.00 | 0.18 | 0.18 | 41 | 1007.8 |
| 20260503215236 | 21 | 268 | 8.0 | 27.4 | 0.00 | 0.18 | 0.18 | 42 | 1007.8 |
| 20260503214734 | 21 | 237 | 8.0 | 11.3 | 0.00 | 0.18 | 0.18 | 41 | 1007.5 |
| 20260503214231 | 20 | 212 | 8.0 | 16.1 | 0.00 | 0.18 | 0.18 | 42 | 1007.8 |
| 20260503213729 | 20 | 263 | 12.9 | 17.7 | 0.00 | 0.18 | 0.18 | 43 | 1007.9 |
| 20260503213226 | 20 | 8 | 0.0 | 17.7 | 0.00 | 0.18 | 0.18 | 44 | 1008.1 |
| 20260503212723 | 20 | 185 | 4.8 | 24.1 | 0.00 | 0.18 | 0.18 | 43 | 1008.1 |
| 20260503212221 | 20 | 242 | 6.4 | 14.5 | 0.00 | 0.18 | 0.18 | 43 | 1008.2 |
| 20260503211718 | 19 | 163 | 8.0 | 14.5 | 0.00 | 0.18 | 0.18 | 44 | 1008.2 |
| 20260503211214 | 20 | 263 | 8.0 | 20.9 | 0.00 | 0.18 | 0.18 | 43 | 1008.5 |
| 20260503210709 | 20 | 160 | 6.4 | 20.9 | 0.00 | 0.18 | 0.18 | 43 | 1008.4 |
| 20260503210207 | 19 | 254 | 16.1 | 22.5 | 0.00 | 0.18 | 0.18 | 44 | 1008.6 |
| 20260503205703 | 20 | 255 | 6.4 | 16.1 | 0.00 | 0.18 | 0.18 | 43 | 1008.5 |
| 20260503205159 | 19 | 276 | 6.4 | 30.6 | 0.00 | 0.18 | 0.18 | 44 | 1008.9 |
| 20260503204655 | 18 | 130 | 4.8 | 30.6 | 0.00 | 0.18 | 0.18 | 44 | 1008.6 |
| 20260503204153 | 20 | 169 | 6.4 | 30.6 | 0.00 | 0.18 | 0.18 | 43 | 1009.2 |
| 20260503203650 | 18 | 261 | 4.8 | 32.2 | 0.00 | 0.18 | 0.18 | 45 | 1009.3 |
| 20260503203148 | 18 | 281 | 6.4 | 33.8 | 0.00 | 0.18 | 0.18 | 45 | 1009.3 |
| 20260503202644 | 18 | 144 | 11.3 | 22.5 | 0.00 | 0.18 | 0.18 | 44 | 1009.5 |
| 20260503202143 | 20 | 272 | 4.8 | 19.3 | 0.00 | 0.18 | 0.18 | 43 | 1009.6 |
| 20260503201641 | 18 | 264 | 11.3 | 27.4 | 0.00 | 0.18 | 0.18 | 44 | 1009.4 |
| 20260503201137 | 18 | 226 | 19.3 | 30.6 | 0.00 | 0.18 | 0.18 | 43 | 1009.6 |
| 20260503200633 | 18 | 288 | 9.7 | 19.3 | 0.00 | 0.18 | 0.18 | 43 | 1009.7 |
| 20260503200130 | 18 | 71 | 8.0 | 33.8 | 0.00 | 0.18 | 0.18 | 44 | 1009.8 |
| 20260503195627 | 18 | 199 | 8.0 | 22.5 | 0.00 | 0.18 | 0.18 | 44 | 1009.8 |
| 20260503195124 | 18 | 208 | 9.7 | 32.2 | 0.00 | 0.18 | 0.18 | 42 | 1010.0 |
| 20260503194621 | 20 | 266 | 9.7 | 40.2 | 0.00 | 0.18 | 0.18 | 42 | 1009.9 |
| 20260503194116 | 20 | 335 | 4.8 | 20.9 | 0.00 | 0.18 | 0.18 | 43 | 1010.0 |
| 20260503193613 | 18 | 14 | 9.7 | 20.9 | 0.00 | 0.18 | 0.18 | 44 | 1009.9 |
| 20260503193109 | 18 | 101 | 4.8 | 20.9 | 0.00 | 0.18 | 0.18 | 45 | 1010.2 |
| 20260503192604 | 18 | 144 | 12.9 | 27.4 | 0.00 | 0.18 | 0.18 | 46 | 1010.2 |
| 20260503192101 | 18 | 269 | 14.5 | 27.4 | 0.00 | 0.18 | 0.18 | 46 | 1010.2 |
| 20260503191557 | 18 | 301 | 6.4 | 14.5 | 0.00 | 0.18 | 0.18 | 49 | 1010.4 |
| 20260503191054 | 18 | 71 | 0.0 | 16.1 | 0.00 | 0.18 | 0.18 | 50 | 1010.2 |
| 20260503190551 | 18 | 27 | 3.2 | 19.3 | 0.00 | 0.18 | 0.18 | 53 | 1010.4 |
| 20260503190048 | 17 | 144 | 6.4 | 20.9 | 0.00 | 0.18 | 0.18 | 53 | 1010.6 |
| 20260503185539 | 17 | 151 | 1.6 | 38.6 | 0.00 | 0.18 | 0.18 | 53 | 1010.3 |
| 20260503185038 | 17 | 314 | 1.6 | 22.5 | 0.00 | 0.18 | 0.18 | 57 | 1010.5 |
| 20260503184535 | 16 | 178 | 4.8 | 19.3 | 0.00 | 0.18 | 0.18 | 58 | 1010.7 |
| 20260503184032 | 16 | 266 | 11.3 | 20.9 | 0.00 | 0.18 | 0.18 | 60 | 1010.9 |
| 20260503183528 | 16 | 266 | 11.3 | 20.9 | 0.00 | 0.18 | 0.18 | 60 | 1010.9 |
| 20260503183025 | 16 | 210 | 4.8 | 14.5 | 0.00 | 0.18 | 0.18 | 62 | 1011.0 |
| 20260503182524 | 15 | 255 | 4.8 | 17.7 | 0.00 | 0.18 | 0.18 | 63 | 1011.0 |
| 20260503182021 | 15 | 203 | 1.6 | 11.3 | 0.00 | 0.18 | 0.18 | 67 | 1011.2 |
| 20260503181518 | 15 | 271 | 8.0 | 16.1 | 0.00 | 0.18 | 0.18 | 69 | 1011.4 |
| 20260503181014 | 15 | 152 | 4.8 | 14.5 | 0.00 | 0.18 | 0.18 | 67 | 1011.4 |
| 20260503180512 | 15 | 158 | 4.8 | 11.3 | 0.00 | 0.18 | 0.18 | 69 | 1011.6 |
| 20260503180009 | 13 | 289 | 0.0 | 11.3 | 0.00 | 0.18 | 0.18 | 74 | 1011.6 |
| 20260503175507 | 13 | 302 | 6.4 | 14.5 | 0.00 | 0.18 | 0.18 | 73 | 1012.0 |
| 20260503175003 | 13 | 59 | 3.2 | 11.3 | 0.00 | 0.18 | 0.18 | 74 | 1012.0 |
| 20260503174501 | 12 | 50 | 1.6 | 8.0 | 0.00 | 0.18 | 0.18 | 80 | 1012.2 |
| 20260503173956 | 11 | 40 | 3.2 | 9.7 | 0.00 | 0.18 | 0.18 | 82 | 1012.3 |
| 20260503173452 | 11 | 338 | 3.2 | 6.4 | 0.05 | 0.18 | 0.18 | 84 | 1012.5 |
| 20260503172949 | 10 | 330 | 3.2 | 9.7 | 0.05 | 0.18 | 0.18 | 86 | 1012.3 |
| 20260503172446 | 9 | 76 | 3.2 | 11.3 | 0.00 | 0.18 | 0.18 | 87 | 1012.8 |
| 20260503171943 | 9 | 106 | 4.8 | 6.4 | 0.00 | 0.18 | 0.18 | 87 | 1012.9 |
| 20260503171439 | 9 | 67 | 0.0 | 4.8 | 0.00 | 0.18 | 0.18 | 87 | 1013.3 |
| 20260503170937 | 8 | 232 | 3.2 | 8.0 | 0.00 | 0.18 | 0.18 | 88 | 1013.7 |
| 20260503170433 | 8 | 120 | 3.2 | 9.7 | 0.00 | 0.18 | 0.18 | 90 | 1013.8 |
| 20260503150825 | 8 | 284 | 6.4 | 8.0 | 0.30 | 0.05 | 0.05 | 84 | 1016.1 |
| 20260503150321 | 10 | 260 | 6.4 | 17.7 | 0.13 | 0.03 | 0.03 | 78 | 1016.1 |
| 20260503140246 | 10 | 276 | 4.8 | 12.9 | 0.00 | 0.00 | 0.00 | 64 | 1015.7 |
| 20260503131215 | 10 | 265 | 3.2 | 12.9 | 0.00 | 0.00 | 0.00 | 63 | 1015.8 |
| 20260503130713 | 10 | 202 | 6.4 | 12.9 | 0.00 | 0.00 | 0.00 | 63 | 1015.5 |
| 20260503130210 | 10 | 147 | 4.8 | 14.5 | 0.00 | 0.00 | 0.00 | 63 | 1015.9 |
| 20260503120136 | 8 | 198 | 1.6 | 8.0 | 0.00 | 0.00 | 0.00 | 64 | 1015.7 |
| 20260503110603 | 7 | 112 | 3.2 | 6.4 | 0.00 | 0.00 | 0.00 | 65 | 1015.5 |
| 20260503090450 | 6 | 182 | 4.8 | 4.8 | 0.00 | 0.00 | 0.00 | 67 | 1016.2 |